^^
Datos históricos de la estación: Murcia-Puente Tocinos
Diario Informe para Octubre 12, 2018 Unidades:  Inglés    Métrico   Ambas
Diario Semanal Mensual Anual Configurable
  Máximo: Mínimo: Media:
Temperatura: 83.5 °F 64.6 °F 72.9 °F
Punto de rocio: 67.1 °F 61 °F 64.2 °F
Humedad: 91% 47% 76%
Velocidad viento: 8.5mph 0mph 3.4mph
Racha viento: 15mph - -
Viento- - SE
Presión: 30.2 in 30 in -
Precipitación: 0 in    
Historical Graphs
 
 
Tabla de datos para Octubre 12, 2018
Hora Temperatura Punto de rocio Presión Viento Velocidad viento Racha viento Humedad Intensidad lluvia(por hora) Nubes
00:00 70.9 °F 65.5 °F 30 in Calm     83% 0 in CLR
00:05 70.7 °F 65.3 °F 30 in Calm     83% 0 in CLR
00:10 70.7 °F 65.3 °F 30 in Calm     83% 0 in CLR
00:15 70.5 °F 65.1 °F 30 in Calm     83% 0 in CLR
00:20 70.5 °F 65.5 °F 30 in Calm     84% 0 in CLR
00:25 70.5 °F 65.5 °F 30 in Calm     84% 0 in CLR
00:30 70.5 °F 65.8 °F 30 in Calm     85% 0 in CLR
00:35 70.5 °F 65.5 °F 30 in Calm     84% 0 in CLR
00:40 70.3 °F 65.7 °F 30 in Calm     85% 0 in CLR
00:45 70.3 °F 65.7 °F 30 in Calm     85% 0 in CLR
00:50 70.2 °F 65.5 °F 30 in Calm     85% 0 in CLR
00:55 70.2 °F 65.1 °F 30 in Calm     84% 0 in CLR
01:00 70 °F 64.9 °F 30 in Calm     84% 0 in CLR
01:05 70 °F 64.9 °F 30 in Calm   2.4 mph 84% 0 in CLR
01:10 69.6 °F 64.6 °F 30 in Calm   4.7 mph 84% 0 in CLR
01:15 69.4 °F 64.8 °F 30 in Calm   5.8 mph 85% 0 in CLR
01:20 69.1 °F 64.4 °F 30 in SE 3.1 mph 4.6 mph 85% 0 in CLR
01:25 68.9 °F 64.6 °F 30 in SE 3.1 mph 4.6 mph 86% 0 in CLR
01:30 68.9 °F 64.6 °F 30 in SSE 3.1 mph 5.8 mph 86% 0 in CLR
01:35 68.9 °F 64.9 °F 30 in SSE 3.1 mph 5.2 mph 87% 0 in CLR
01:40 68.7 °F 64.8 °F 30 in SSE 3.6 mph 4.7 mph 87% 0 in CLR
01:45 68.7 °F 64.8 °F 30 in South 3.6 mph 4.6 mph 87% 0 in CLR
01:50 68.9 °F 65.1 °F 30 in SSW 3.6 mph 5.2 mph 88% 0 in CLR
01:55 68.9 °F 65.1 °F 30 in SW 3.6 mph 5.8 mph 88% 0 in CLR
02:00 68.9 °F 65.1 °F 30 in SW 5 mph 5 mph 88% 0 in CLR
02:05 69.1 °F 65.5 °F 30 in SW 4 mph 3.5 mph 88% 0 in CLR
02:10 69.1 °F 65.5 °F 30 in SW 2.9 mph 4.6 mph 88% 0 in CLR
02:15 69.1 °F 65.5 °F 30 in SW 2.9 mph 4.6 mph 88% 0 in CLR
02:20 69.1 °F 65.5 °F 30 in SW 2.9 mph 5.8 mph 88% 0 in CLR
02:25 69.3 °F 65.7 °F 30 in SW 2.9 mph 5.4 mph 88% 0 in CLR
02:30 69.3 °F 65.7 °F 30 in SW 3.6 mph 4.7 mph 88% 0 in CLR
02:35 69.1 °F 65.5 °F 30 in SW 3.6 mph 5.8 mph 88% 0 in CLR
02:40 69.1 °F 65.5 °F 30 in SSW 3.6 mph 5.8 mph 88% 0 in CLR
02:45 68.9 °F 65.1 °F 30 in SSW 3.6 mph 6.9 mph 88% 0 in CLR
02:50 68.7 °F 64.9 °F 30.1 in SSW 4 mph 4.6 mph 88% 0 in CLR
02:55 68.5 °F 64.8 °F 30.1 in SSE 4 mph 5.8 mph 88% 0 in CLR
03:00 68.4 °F 64.8 °F 30.1 in South 5 mph 6 mph 88% 0 in CLR
03:05 68.2 °F 64.6 °F 30 in SSW 4 mph 3.6 mph 88% 0 in CLR
03:10 68.2 °F 64.8 °F 30 in SSW 3.6 mph 3.5 mph 89% 0 in CLR
03:15 68.2 °F 64.8 °F 30 in South 3.6 mph 4.6 mph 89% 0 in CLR
03:20 68.2 °F 64.8 °F 30 in SSW 2.4 mph 3.5 mph 89% 0 in CLR
03:25 68.2 °F 64.8 °F 30 in SW 2.4 mph 4.6 mph 89% 0 in CLR
03:30 68.2 °F 64.8 °F 30 in SW 3.1 mph 4.6 mph 89% 0 in CLR
03:35 68.2 °F 64.8 °F 30 in SW 3.1 mph 2.4 mph 89% 0 in CLR
03:40 68.2 °F 64.8 °F 30 in SW 2 mph 4.6 mph 89% 0 in CLR
03:45 68.2 °F 64.8 °F 30 in WSW 2 mph 4.6 mph 89% 0 in CLR
03:50 68.2 °F 64.8 °F 30 in SW 3.1 mph 4.6 mph 89% 0 in CLR
03:55 68.2 °F 64.8 °F 30 in SW 3.1 mph 2.4 mph 89% 0 in CLR
04:00 68.2 °F 64.8 °F 30 in SW 2 mph 4 mph 89% 0 in CLR
04:05 68 °F 64.6 °F 30 in West 2.4 mph 3.5 mph 89% 0 in CLR
04:10 67.8 °F 64.6 °F 30 in West 1.8 mph 1.2 mph 89% 0 in CLR
04:15 67.8 °F 64.6 °F 30 in South 1.8 mph 3.5 mph 89% 0 in CLR
04:20 67.5 °F 63.9 °F 30 in South 1.8 mph 3.6 mph 88% 0 in CLR
04:25 67.1 °F 63.3 °F 30 in South 1.8 mph 4.6 mph 88% 0 in CLR
04:30 66.9 °F 63.7 °F 30 in South 2.9 mph 3.5 mph 89% 0 in CLR
04:35 66.9 °F 63.7 °F 30 in South 2.9 mph 3.5 mph 89% 0 in CLR
04:40 66.9 °F 63.9 °F 30 in South 2 mph 2.4 mph 90% 0 in CLR
04:45 67.1 °F 64 °F 30 in South 2 mph 2.4 mph 90% 0 in CLR
04:50 67.1 °F 63.7 °F 30 in South 1.4 mph 2.3 mph 89% 0 in CLR
04:55 67.1 °F 63.7 °F 30 in South 1.4 mph   89% 0 in CLR
05:00 67.1 °F 63.7 °F 30 in South 1 mph   89% 0 in CLR
05:05 67.1 °F 63.7 °F 30 in South 1.4 mph   89% 0 in CLR
05:10 67.1 °F 63.7 °F 30 in Calm     89% 0 in CLR
05:15 67.3 °F 63.9 °F 30 in Calm     89% 0 in CLR
05:20 67.3 °F 63.9 °F 30 in Calm   2.3 mph 89% 0 in CLR
05:25 67.3 °F 63.9 °F 30 in Calm   2.3 mph 89% 0 in CLR
05:30 67.3 °F 63.9 °F 30 in South 1.4 mph 2.3 mph 89% 0 in CLR
05:35 67.3 °F 63.9 °F 30 in South 1.4 mph 3.5 mph 89% 0 in CLR
05:40 67.1 °F 63.7 °F 30 in WSW 1.4 mph 3.6 mph 89% 0 in CLR
05:45 67.1 °F 64 °F 30 in WSW 1.4 mph 3.5 mph 90% 0 in CLR
05:50 67.1 °F 64 °F 30.1 in WSW 2.4 mph 3.5 mph 90% 0 in CLR
05:55 67.1 °F 64 °F 30.1 in WSW 2.4 mph 4.6 mph 90% 0 in CLR
06:00 66.9 °F 63.9 °F 30.1 in WSW 2 mph 4 mph 90% 0 in CLR
06:05 66.9 °F 63.9 °F 30 in WSW 2 mph   90% 0 in CLR
06:10 66.9 °F 63.9 °F 30 in Calm   4.6 mph 90% 0 in CLR
06:15 66.7 °F 63.7 °F 30 in Calm   2.3 mph 90% 0 in CLR
06:20 66.6 °F 63.1 °F 30.1 in SW 1.8 mph   89% 0 in CLR
06:25 66.4 °F 63 °F 30.1 in WSW 1.8 mph 4.6 mph 89% 0 in CLR
06:30 66.4 °F 63.3 °F 30.1 in Calm     90% 0 in CLR
06:35 66.4 °F 63 °F 30.1 in Calm     89% 0 in CLR
06:40 66.4 °F 63.3 °F 30.1 in Calm     90% 0 in CLR
06:45 66.4 °F 63.3 °F 30.1 in Calm     90% 0 in CLR
06:50 66.4 °F 63.3 °F 30.1 in Calm     90% 0 in CLR
06:55 66.4 °F 63.3 °F 30.1 in Calm     90% 0 in CLR
07:00 66.2 °F 63 °F 30.1 in Calm     89% 0 in CLR
07:05 65.8 °F 62.4 °F 30.1 in Calm     89% 0 in CLR
07:10 65.7 °F 62.2 °F 30.1 in Calm   2.9 mph 89% 0 in CLR
07:15 65.7 °F 62.6 °F 30.1 in Calm   3.5 mph 90% 0 in CLR
07:20 65.5 °F 62.4 °F 30.1 in SW 2 mph 2.3 mph 90% 0 in CLR
07:25 65.3 °F 62.2 °F 30.1 in SSW 2 mph 3.5 mph 90% 0 in CLR
07:30 65.1 °F 62.1 °F 30.1 in SSW 2 mph 2.3 mph 90% 0 in CLR
07:35 65.1 °F 62.1 °F 30.1 in SSW 2 mph 2.4 mph 90% 0 in CLR
07:40 64.9 °F 62.2 °F 30.1 in SSW 2 mph 3.5 mph 91% 0 in CLR
07:45 65.1 °F 62.4 °F 30.1 in WSW 2 mph 4.7 mph 91% 0 in CLR
07:50 65.5 °F 62.8 °F 30.1 in WSW 2.4 mph 4.6 mph 91% 0 in CLR
07:55 65.7 °F 63 °F 30.1 in WSW 2.4 mph 2.9 mph 91% 0 in CLR
08:00 65.7 °F 63 °F 30.1 in WSW 2 mph 5 mph 91% 0 in CLR
08:05 65.8 °F 62.8 °F 30.1 in SW 2.4 mph 2.3 mph 90% 0 in CLR
08:10 65.5 °F 62.2 °F 30.1 in SSE 2 mph 3.5 mph 89% 0 in CLR
08:15 65.1 °F 61.9 °F 30.1 in SE 2 mph 4.6 mph 89% 0 in CLR
08:20 64.8 °F 61.3 °F 30.1 in SSE 2.4 mph 4.6 mph 89% 0 in CLR
08:25 64.6 °F 61.5 °F 30.1 in SSE 2.4 mph 4.6 mph 90% 0 in CLR
08:30 64.6 °F 61.9 °F 30.1 in SE 3.1 mph 3.5 mph 91% 0 in CLR
08:35 64.6 °F 61.9 °F 30.1 in SSE 3.1 mph 4.7 mph 91% 0 in CLR
08:40 64.6 °F 61.9 °F 30.1 in SSE 2.9 mph 4.6 mph 91% 0 in CLR
08:45 64.6 °F 61.9 °F 30.1 in SSE 2.9 mph 6.9 mph 91% 0 in CLR
08:50 64.6 °F 61.9 °F 30.1 in South 4 mph 5.2 mph 91% 0 in CLR
08:55 64.6 °F 61.9 °F 30.1 in South 4 mph 5.8 mph 91% 0 in CLR
09:00 64.8 °F 62.1 °F 30.1 in South 5 mph 5 mph 91% 0 in CLR
09:05 65.1 °F 62.4 °F 30.1 in South 4 mph 3.5 mph 91% 0 in CLR
09:10 65.3 °F 62.6 °F 30.1 in South 3.1 mph 4.6 mph 91% 0 in CLR
09:15 65.5 °F 62.4 °F 30.1 in South 3.1 mph 4 mph 90% 0 in CLR
09:20 65.8 °F 62.8 °F 30.1 in SSW 2.9 mph 4.6 mph 90% 0 in CLR
09:25 66.2 °F 63.1 °F 30.1 in SSW 2.9 mph 5.8 mph 90% 0 in CLR
09:30 66.6 °F 63.1 °F 30.1 in WSW 3.6 mph 5.8 mph 89% 0 in CLR
09:35 67.1 °F 63.3 °F 30.1 in SSW 3.6 mph 6.9 mph 88% 0 in CLR
09:40 67.5 °F 63.5 °F 30.1 in SW 4 mph 5.8 mph 87% 0 in CLR
09:45 67.8 °F 63.5 °F 30.1 in South 4 mph 5.8 mph 86% 0 in CLR
09:50 68 °F 63.3 °F 30.1 in WSW 4 mph 5.8 mph 85% 0 in CLR
09:55 68.4 °F 63.3 °F 30.1 in WSW 4 mph 4.6 mph 84% 0 in CLR
10:00 68.5 °F 63.5 °F 30.1 in SW 3 mph 7 mph 84% 0 in CLR
10:05 68.7 °F 63.3 °F 30.1 in WNW 3.6 mph 4.6 mph 83% 0 in CLR
10:10 69.1 °F 63.3 °F 30.1 in West 3.6 mph 4.6 mph 82% 0 in CLR
10:15 69.3 °F 63.5 °F 30.1 in SSW 3.6 mph 4.6 mph 82% 0 in CLR
10:20 69.6 °F 63.5 °F 30.1 in South 2.9 mph 4.6 mph 81% 0 in CLR
10:25 70 °F 63.5 °F 30.1 in South 2.9 mph 4.6 mph 80% 0 in CLR
10:30 70.2 °F 63.7 °F 30.1 in SSW 3.1 mph 4.6 mph 80% 0 in CLR
10:35 70.3 °F 63.5 °F 30.1 in ESE 3.1 mph 4.7 mph 79% 0 in CLR
10:40 70.7 °F 63.9 °F 30.1 in South 3.1 mph 3.5 mph 79% 0 in CLR
10:45 70.9 °F 63.7 °F 30.1 in WSW 3.1 mph 3.1 mph 78% 0 in CLR
10:50 70.9 °F 63.3 °F 30.1 in WSW 2.4 mph 4.6 mph 77% 0 in CLR
10:55 70.9 °F 63.7 °F 30.1 in WSW 2.4 mph 4.6 mph 78% 0 in CLR
11:00 70.9 °F 63.3 °F 30.1 in WSW 3 mph 6 mph 77% 0 in CLR
11:05 70.9 °F 63.3 °F 30.2 in WSW 3.6 mph 6.9 mph 77% 0 in CLR
11:10 71.1 °F 63.9 °F 30.2 in WSW 4 mph 4.6 mph 78% 0 in CLR
11:15 71.4 °F 63.5 °F 30.2 in West 4 mph 5.8 mph 76% 0 in CLR
11:20 71.8 °F 63.9 °F 30.2 in SSW 3.1 mph 5.8 mph 76% 0 in CLR
11:25 72 °F 63.7 °F 30.2 in WNW 3.1 mph 5.9 mph 75% 0 in CLR
11:30 72.1 °F 63.9 °F 30.2 in SSW 3.6 mph 5.8 mph 75% 0 in CLR
11:35 72.3 °F 63.9 °F 30.2 in SSW 3.6 mph 6.9 mph 75% 0 in CLR
11:40 72.3 °F 63.9 °F 30.2 in WSW 4.3 mph 5.8 mph 75% 0 in CLR
11:45 72.9 °F 64 °F 30.2 in South 4.3 mph 4.6 mph 74% 0 in CLR
11:50 73.2 °F 64 °F 30.2 in South 4 mph 8.7 mph 73% 0 in CLR
11:55 73.6 °F 64.4 °F 30.2 in South 4 mph 5.8 mph 73% 0 in CLR
12:00 73.8 °F 64.2 °F 30.2 in South 5 mph 7 mph 72% 0 in CLR
12:05 74.1 °F 64 °F 30.2 in South 5.2 mph 5.8 mph 71% 0 in CLR
12:10 74.5 °F 64.6 °F 30.2 in SSW 4 mph 6.9 mph 71% 0 in CLR
12:15 74.8 °F 64.4 °F 30.2 in South 4 mph 6.9 mph 70% 0 in CLR
12:20 75.2 °F 64.2 °F 30.2 in SSE 4 mph 6.9 mph 69% 0 in CLR
12:25 75.6 °F 64.2 °F 30.2 in SSE 4 mph 4.6 mph 68% 0 in CLR
12:30 76.1 °F 64.8 °F 30.2 in SW 4.3 mph 5.8 mph 68% 0 in CLR
12:35 76.5 °F 64.2 °F 30.2 in SE 4.3 mph 4.6 mph 66% 0 in CLR
12:40 76.6 °F 64.4 °F 30.2 in SSE 3.1 mph 6.2 mph 66% 0 in CLR
12:45 76.6 °F 64 °F 30.2 in SE 3.1 mph 5.8 mph 65% 0 in CLR
12:50 76.8 °F 64.2 °F 30.1 in ESE 4.3 mph 4.6 mph 65% 0 in CLR
12:55 77.4 °F 64.2 °F 30.1 in ESE 4.3 mph 4.6 mph 64% 0 in CLR
13:00 77.5 °F 64.4 °F 30.1 in ESE 3 mph 5 mph 64% 0 in CLR
13:05 77.9 °F 64.2 °F 30.1 in SSW 3.1 mph 4.6 mph 63% 0 in CLR
13:10 78.3 °F 64.2 °F 30.1 in ESE 2 mph 5.8 mph 62% 0 in CLR
13:15 78.6 °F 64 °F 30.1 in ESE 2 mph 6.9 mph 61% 0 in FEW
13:20 78.4 °F 63.9 °F 30.1 in ESE 3.1 mph 5.2 mph 61% 0 in CLR
13:25 78.4 °F 64.2 °F 30.1 in NNE 3.1 mph 4.6 mph 62% 0 in FEW
13:30 78.6 °F 64.6 °F 30.1 in North 2.9 mph 2.3 mph 62% 0 in CLR
13:35 79 °F 64.4 °F 30.1 in ENE 2.9 mph 5.8 mph 61% 0 in FEW
13:40 79.3 °F 64.2 °F 30.1 in NNW 2.9 mph 5.8 mph 60% 0 in CLR
13:45 79.5 °F 64.4 °F 30.1 in NE 2.9 mph 4.7 mph 60% 0 in FEW
13:50 79.5 °F 64.4 °F 30.1 in NNE 2.9 mph 4.6 mph 60% 0 in CLR
13:55 79.5 °F 64.4 °F 30.1 in NW 2.9 mph 4.6 mph 60% 0 in FEW
14:00 80.1 °F 64.4 °F 30.1 in North 2 mph 7 mph 59% 0 in FEW
14:05 79.7 °F 64 °F 30.1 in NW 2.4 mph 6.9 mph 59% 0 in FEW
14:10 79.7 °F 64 °F 30.1 in NNW 4 mph 4.6 mph 59% 0 in CLR
14:15 79.9 °F 63.9 °F 30.1 in NNE 4 mph 2.9 mph 58% 0 in FEW
14:20 80.2 °F 64 °F 30.1 in North 2.4 mph 5.8 mph 58% 0 in CLR
14:25 80.4 °F 63.9 °F 30.1 in WNW 2.4 mph 4.7 mph 57% 0 in FEW
14:30 80.4 °F 63.9 °F 30.1 in West 3.6 mph 5.8 mph 57% 0 in CLR
14:35 80.4 °F 63.3 °F 30.1 in NW 3.6 mph 5.8 mph 56% 0 in FEW
14:40 80.6 °F 64 °F 30.1 in North 2.4 mph 4 mph 57% 0 in CLR
14:45 80.8 °F 63.1 °F 30.1 in ENE 2.4 mph 9.2 mph 55% 0 in FEW
14:50 80.8 °F 63.1 °F 30.1 in ENE 4 mph 9.2 mph 55% 0 in CLR
14:55 80.8 °F 63.7 °F 30.1 in East 4 mph 4.6 mph 56% 0 in FEW
15:00 81 °F 62.8 °F 30.1 in ENE 3 mph 6 mph 54% 0 in FEW
15:05 81.3 °F 62.6 °F 30.1 in East 3.1 mph 5.9 mph 53% 0 in FEW
15:10 81.3 °F 62.1 °F 30.1 in NNE 4 mph 5.8 mph 52% 0 in CLR
15:15 81.3 °F 62.6 °F 30.1 in East 4 mph 8.1 mph 53% 0 in FEW
15:20 81.3 °F 63.1 °F 30.1 in NE 4 mph 8.1 mph 54% 0 in CLR
15:25 81.5 °F 62.8 °F 30.1 in NNW 4 mph 6.9 mph 53% 0 in FEW
15:30 81.7 °F 63 °F 30.1 in ENE 4.7 mph 5.8 mph 53% 0 in CLR
15:35 82 °F 62.1 °F 30.1 in North 4.7 mph 9.2 mph 51% 0 in FEW
15:40 82.4 °F 63 °F 30.1 in NE 3.6 mph 4.6 mph 52% 0 in CLR
15:45 82.4 °F 63.5 °F 30.1 in NE 3.6 mph 8.1 mph 53% 0 in FEW
15:50 82.6 °F 63.7 °F 30.1 in North 4.3 mph 5.8 mph 53% 0 in CLR
15:55 82.8 °F 63.3 °F 30.1 in NE 4.3 mph 5.2 mph 52% 0 in FEW
16:00 82.8 °F 62.8 °F 30.1 in North 5 mph 7 mph 51% 0 in FEW
16:05 82.6 °F 61.5 °F 30.1 in NNW 4 mph 9.2 mph 49% 0 in FEW
16:10 82.6 °F 61.5 °F 30.1 in North 5.2 mph 11.5 mph 49% 0 in CLR
16:15 82.6 °F 61 °F 30.1 in North 5.2 mph 8.1 mph 48% 0 in FEW
16:20 82.9 °F 62.4 °F 30.1 in NE 5.9 mph 6.9 mph 50% 0 in CLR
16:25 82.9 °F 61.9 °F 30.1 in NNE 5.9 mph 11.5 mph 49% 0 in FEW
16:30 83.1 °F 62.1 °F 30.1 in NE 5.4 mph 11.5 mph 49% 0 in CLR
16:35 83.1 °F 62.6 °F 30.1 in NE 5.4 mph 6.9 mph 50% 0 in FEW
16:40 83.3 °F 62.1 °F 30.1 in NW 6.2 mph 9.2 mph 49% 0 in CLR
16:45 83.5 °F 62.2 °F 30.1 in NE 6.2 mph 7.4 mph 49% 0 in FEW
16:50 83.5 °F 61.7 °F 30.1 in ENE 4.3 mph 8.1 mph 48% 0 in CLR
16:55 83.5 °F 61.7 °F 30.1 in NE 4.3 mph 8.1 mph 48% 0 in FEW
17:00 83.5 °F 61.7 °F 30.1 in NE 6 mph 8 mph 48% 0 in FEW
17:05 83.5 °F 61.2 °F 30.1 in North 5.4 mph 9.2 mph 47% 0 in FEW
17:10 83.5 °F 61.7 °F 30.1 in SE 5.2 mph 9.2 mph 48% 0 in CLR
17:15 83.5 °F 61.7 °F 30.1 in NE 5.2 mph 10.4 mph 48% 0 in CLR
17:20 83.5 °F 62.2 °F 30.1 in NNE 6.2 mph 9.2 mph 49% 0 in CLR
17:25 83.5 °F 61.7 °F 30.1 in NNE 6.2 mph 9.2 mph 48% 0 in CLR
17:30 83.5 °F 62.2 °F 30.1 in NE 6.2 mph 13.8 mph 49% 0 in CLR
17:35 83.1 °F 62.6 °F 30.1 in NNE 6.2 mph 11.5 mph 50% 0 in CLR
17:40 82.9 °F 62.4 °F 30.1 in ENE 6.9 mph 12.7 mph 50% 0 in CLR
17:45 82.9 °F 63 °F 30.1 in NNE 6.9 mph 10.4 mph 51% 0 in CLR
17:50 82.8 °F 63.3 °F 30.1 in NE 7.4 mph 15 mph 52% 0 in CLR
17:55 82.4 °F 63.5 °F 30.1 in NNE 7.4 mph 10.4 mph 53% 0 in CLR
18:00 82.2 °F 64 °F 30.1 in NE 8 mph 13 mph 54% 0 in CLR
18:05 82 °F 63.9 °F 30.1 in NE 8.1 mph 10.4 mph 54% 0 in CLR
18:10 82 °F 63.9 °F 30.1 in NE 8.1 mph 11.5 mph 54% 0 in CLR
18:15 81.9 °F 64 °F 30.1 in NE 8.1 mph 11.5 mph 55% 0 in CLR
18:20 81.7 °F 64.6 °F 30.1 in NE 7.4 mph 15 mph 56% 0 in CLR
18:25 81.3 °F 64.6 °F 30.1 in ESE 7.4 mph 8.1 mph 57% 0 in CLR
18:30 81.1 °F 64.9 °F 30.1 in East 8.5 mph 8.1 mph 58% 0 in CLR
18:35 81.1 °F 64.9 °F 30.1 in NE 8.5 mph 9.2 mph 58% 0 in CLR
18:40 80.8 °F 65.1 °F 30.1 in ENE 5.4 mph 6.9 mph 59% 0 in CLR
18:45 80.6 °F 64.9 °F 30.1 in ENE 5.4 mph 9.2 mph 59% 0 in CLR
18:50 80.2 °F 64.6 °F 30.1 in ESE 5.4 mph 6.9 mph 59% 0 in CLR
18:55 80.1 °F 64.9 °F 30.1 in ENE 5.4 mph 9.2 mph 60% 0 in CLR
19:00 79.9 °F 64.8 °F 30.1 in ENE 5 mph 9 mph 60% 0 in CLR
19:05 79.5 °F 64.9 °F 30.1 in East 5.2 mph 6.9 mph 61% 0 in CLR
19:10 79.3 °F 65.1 °F 30.1 in East 5.2 mph 5.8 mph 62% 0 in CLR
19:15 79.2 °F 65.5 °F 30.1 in East 5.2 mph 6.9 mph 63% 0 in CLR
19:20 78.8 °F 65.7 °F 30.1 in ESE 4 mph 6.9 mph 64% 0 in CLR
19:25 78.3 °F 66 °F 30.1 in SE 4 mph 8.5 mph 66% 0 in CLR
19:30 77.5 °F 66 °F 30.1 in SE 5.9 mph 9.2 mph 68% 0 in CLR
19:35 77.2 °F 66.2 °F 30.1 in SSE 5.9 mph 9.2 mph 69% 0 in CLR
19:40 76.8 °F 66.4 °F 30.1 in SE 6.2 mph 10.4 mph 70% 0 in CLR
19:45 76.5 °F 66.4 °F 30.1 in ESE 6.2 mph 8.1 mph 71% 0 in CLR
19:50 76.3 °F 66.2 °F 30.1 in ESE 5.9 mph 10.4 mph 71% 0 in CLR
19:55 75.9 °F 66.2 °F 30.1 in SE 5.9 mph 9.2 mph 72% 0 in CLR
20:00 75.7 °F 66.6 °F 30.1 in ESE 7 mph 9 mph 73% 0 in CLR
20:05 75.6 °F 66.4 °F 30.1 in ESE 6.4 mph 9.2 mph 73% 0 in CLR
20:10 75.4 °F 66.6 °F 30.1 in ESE 5.4 mph 9.2 mph 74% 0 in CLR
20:15 75 °F 66.6 °F 30.1 in East 5.4 mph 6.2 mph 75% 0 in CLR
20:20 74.8 °F 66.4 °F 30.1 in East 5.2 mph 6.9 mph 75% 0 in CLR
20:25 74.7 °F 66.6 °F 30.1 in ESE 5.2 mph 8.1 mph 76% 0 in CLR
20:30 74.5 °F 66.7 °F 30.1 in ENE 5.4 mph 5.9 mph 77% 0 in CLR
20:35 74.3 °F 66.6 °F 30.1 in NE 5.4 mph 5.8 mph 77% 0 in CLR
20:40 74.1 °F 66.7 °F 30.1 in NE 4.7 mph 6.9 mph 78% 0 in CLR
20:45 73.9 °F 66.6 °F 30.1 in NE 4.7 mph 8.7 mph 78% 0 in CLR
20:50 73.8 °F 66.6 °F 30.1 in NE 5.2 mph 8.1 mph 78% 0 in CLR
20:55 73.6 °F 66.7 °F 30.1 in NNE 5.2 mph 6.9 mph 79% 0 in CLR
21:00 73.6 °F 66.6 °F 30.1 in NNE 6 mph 8 mph 79% 0 in CLR
21:05 73.2 °F 66.7 °F 30.1 in NE 5.4 mph 5.4 mph 80% 0 in CLR
21:10 73 °F 66.9 °F 30.1 in NE 4.3 mph 5.9 mph 81% 0 in CLR
21:15 72.9 °F 66.7 °F 30.1 in NNE 4.3 mph 5.8 mph 81% 0 in CLR
21:20 72.7 °F 66.9 °F 30.1 in NE 4 mph 6.9 mph 82% 0 in CLR
21:25 72.3 °F 66.9 °F 30.1 in NNE 4 mph 5.8 mph 83% 0 in CLR
21:30 72.3 °F 66.9 °F 30.1 in North 4 mph 6.9 mph 83% 0 in CLR
21:35 72.1 °F 66.9 °F 30.1 in NE 4 mph 5.8 mph 84% 0 in CLR
21:40 72 °F 66.9 °F 30.1 in NNE 4.3 mph 6.9 mph 84% 0 in CLR
21:45 71.8 °F 66.9 °F 30.1 in NNE 4.3 mph 5.8 mph 85% 0 in CLR
21:50 71.8 °F 66.9 °F 30.1 in NE 4.3 mph 5.8 mph 85% 0 in FEW
21:55 71.6 °F 66.7 °F 30.1 in North 4.3 mph 4.6 mph 85% 0 in CLR
22:00 71.4 °F 66.7 °F 30.1 in NNE 3 mph 5 mph 85% 0 in CLR
22:05 71.4 °F 66.9 °F 30.1 in North 3.6 mph 4.6 mph 86% 0 in CLR
22:10 71.4 °F 66.9 °F 30.1 in NNE 3.1 mph 2.3 mph 86% 0 in FEW
22:15 71.2 °F 66.7 °F 30.1 in North 3.1 mph 4.6 mph 86% 0 in CLR
22:20 71.2 °F 66.7 °F 30.1 in NNW 2.4 mph 3.6 mph 86% 0 in BKN
22:25 71.1 °F 66.9 °F 30.1 in North 2.4 mph 4.6 mph 87% 0 in OVC
22:30 71.1 °F 66.9 °F 30.1 in NE 2.9 mph 5.8 mph 87% 0 in BKN
22:35 71.1 °F 66.9 °F 30.1 in ENE 2.9 mph 5.8 mph 87% 0 in OVC
22:40 70.9 °F 67.1 °F 30.1 in ENE 3.1 mph 2.3 mph 88% 0 in BKN
22:45 70.9 °F 67.1 °F 30.1 in NE 3.1 mph 4.7 mph 88% 0 in OVC
22:50 70.9 °F 67.1 °F 30.1 in NE 2 mph 4.7 mph 88% 0 in BKN
22:55 70.9 °F 67.1 °F 30.1 in ENE 2 mph 3.5 mph 88% 0 in OVC
23:00 70.7 °F 66.9 °F 30.1 in ENE 2 mph 3 mph 88% 0 in CLR
23:05 70.7 °F 66.9 °F 30.1 in ENE 2.9 mph   88% 0 in OVC
23:10 70.7 °F 66.9 °F 30.1 in ENE 1.4 mph 3.6 mph 88% 0 in BKN
23:15 70.7 °F 66.9 °F 30.1 in ENE 1.4 mph 3.5 mph 88% 0 in OVC
23:20 70.7 °F 66.9 °F 30.1 in ENE 2 mph 4.6 mph 88% 0 in SCT
23:25 70.5 °F 66.7 °F 30.1 in ENE 2 mph 3.5 mph 88% 0 in
23:30 70.5 °F 67.1 °F 30.1 in ENE 1.8 mph 2.4 mph 89% 0 in SCT
23:35 70.5 °F 67.1 °F 30.1 in ENE 1.8 mph 3.5 mph 89% 0 in
23:40 70.5 °F 67.1 °F 30.1 in ENE 2 mph 2.9 mph 89% 0 in SCT
23:45 70.3 °F 66.6 °F 30.1 in ENE 2 mph   88% 0 in
23:50 70.2 °F 66.4 °F 30.1 in ENE 1.4 mph   88% 0 in FEW
23:55 70.2 °F 66.7 °F 30.1 in ENE 1.4 mph 2.3 mph 89% 0 in CLR
Murcia-Puente Tocinos, España
Compliments of Weather Underground - 2.75 mb

La estación de MeteoMurcia.com, publica sus datos en los siguientes proyectos:

Meteoclimatic www.awekas.at

W3Counter
Web Analytics